sensor_id;sensor_type;location;lat;lon;timestamp;P1;durP1;ratioP1;P2;durP2;ratioP2
40588;SDS011;26297;49.450;6.640;2024-03-17T04:03:05;2.25;;;1.95;;
40588;SDS011;26297;49.450;6.640;2024-03-17T04:06:09;1.85;;;1.42;;
40588;SDS011;26297;49.450;6.640;2024-03-17T04:09:13;2.92;;;2.20;;
40588;SDS011;26297;49.450;6.640;2024-03-17T04:12:16;3.08;;;2.10;;
40588;SDS011;26297;49.450;6.640;2024-03-17T04:15:19;3.17;;;2.10;;
40588;SDS011;26297;49.450;6.640;2024-03-17T04:18:23;2.58;;;2.10;;
40588;SDS011;26297;49.450;6.640;2024-03-17T04:21:32;4.65;;;2.10;;
40588;SDS011;26297;49.450;6.640;2024-03-17T04:24:35;4.05;;;2.08;;
40588;SDS011;26297;49.450;6.640;2024-03-17T04:27:39;2.30;;;1.85;;
40588;SDS011;26297;49.450;6.640;2024-03-17T04:30:43;2.28;;;2.08;;
40588;SDS011;26297;49.450;6.640;2024-03-17T04:33:48;1.92;;;1.73;;
40588;SDS011;26297;49.450;6.640;2024-03-17T04:36:51;3.03;;;1.65;;
40588;SDS011;26297;49.450;6.640;2024-03-17T04:39:54;2.15;;;1.80;;
40588;SDS011;26297;49.450;6.640;2024-03-17T04:43:00;2.47;;;1.55;;
40588;SDS011;26297;49.450;6.640;2024-03-17T04:46:04;4.00;;;1.83;;
40588;SDS011;26297;49.450;6.640;2024-03-17T04:49:09;2.83;;;1.63;;
40588;SDS011;26297;49.450;6.640;2024-03-17T04:52:12;2.28;;;2.03;;
40588;SDS011;26297;49.450;6.640;2024-03-17T04:55:15;1.60;;;1.50;;
40588;SDS011;26297;49.450;6.640;2024-03-17T04:58:19;1.58;;;1.30;;
40588;SDS011;26297;49.450;6.640;2024-03-17T05:01:22;2.53;;;1.77;;
40588;SDS011;26297;49.450;6.640;2024-03-17T05:04:27;2.88;;;2.13;;
40588;SDS011;26297;49.450;6.640;2024-03-17T05:07:30;2.33;;;1.92;;
40588;SDS011;26297;49.450;6.640;2024-03-17T05:10:33;2.30;;;2.10;;
40588;SDS011;26297;49.450;6.640;2024-03-17T05:13:37;4.35;;;1.90;;
40588;SDS011;26297;49.450;6.640;2024-03-17T05:16:40;3.80;;;1.77;;
40588;SDS011;26297;49.450;6.640;2024-03-17T05:19:44;4.25;;;1.60;;
40588;SDS011;26297;49.450;6.640;2024-03-17T05:22:48;3.70;;;1.80;;
40588;SDS011;26297;49.450;6.640;2024-03-17T05:25:52;3.60;;;1.75;;
40588;SDS011;26297;49.450;6.640;2024-03-17T05:28:55;3.20;;;2.05;;
40588;SDS011;26297;49.450;6.640;2024-03-17T05:31:58;2.45;;;2.22;;
40588;SDS011;26297;49.450;6.640;2024-03-17T05:35:01;4.85;;;2.10;;
40588;SDS011;26297;49.450;6.640;2024-03-17T05:38:04;3.10;;;2.78;;
40588;SDS011;26297;49.450;6.640;2024-03-17T05:41:08;3.90;;;2.50;;
40588;SDS011;26297;49.450;6.640;2024-03-17T05:44:12;4.40;;;2.95;;
40588;SDS011;26297;49.450;6.640;2024-03-17T05:47:18;2.90;;;2.60;;
40588;SDS011;26297;49.450;6.640;2024-03-17T05:50:22;3.30;;;2.50;;
40588;SDS011;26297;49.450;6.640;2024-03-17T05:53:24;2.42;;;2.22;;
40588;SDS011;26297;49.450;6.640;2024-03-17T05:56:27;2.40;;;2.20;;
40588;SDS011;26297;49.450;6.640;2024-03-17T05:59:31;2.90;;;2.40;;
40588;SDS011;26297;49.450;6.640;2024-03-17T06:02:34;2.00;;;1.80;;
40588;SDS011;26297;49.450;6.640;2024-03-17T06:05:37;2.38;;;2.03;;
40588;SDS011;26297;49.450;6.640;2024-03-17T06:08:43;2.97;;;2.55;;
40588;SDS011;26297;49.450;6.640;2024-03-17T06:11:46;2.53;;;2.22;;
40588;SDS011;26297;49.450;6.640;2024-03-17T06:14:49;3.72;;;2.30;;
40588;SDS011;26297;49.450;6.640;2024-03-17T06:17:52;2.70;;;2.45;;
40588;SDS011;26297;49.450;6.640;2024-03-17T06:20:56;2.40;;;2.20;;
40588;SDS011;26297;49.450;6.640;2024-03-17T06:24:02;2.50;;;1.92;;
40588;SDS011;26297;49.450;6.640;2024-03-17T06:27:05;2.63;;;2.40;;
40588;SDS011;26297;49.450;6.640;2024-03-17T06:30:12;2.78;;;2.42;;
40588;SDS011;26297;49.450;6.640;2024-03-17T06:33:17;3.13;;;2.40;;
40588;SDS011;26297;49.450;6.640;2024-03-17T06:36:23;3.03;;;2.67;;
40588;SDS011;26297;49.450;6.640;2024-03-17T06:39:26;2.55;;;2.17;;
40588;SDS011;26297;49.450;6.640;2024-03-17T06:42:32;2.05;;;1.88;;
40588;SDS011;26297;49.450;6.640;2024-03-17T06:45:35;2.97;;;2.10;;
40588;SDS011;26297;49.450;6.640;2024-03-17T06:48:38;2.63;;;2.40;;
40588;SDS011;26297;49.450;6.640;2024-03-17T06:51:43;2.63;;;2.42;;
40588;SDS011;26297;49.450;6.640;2024-03-17T06:54:47;2.70;;;2.50;;
40588;SDS011;26297;49.450;6.640;2024-03-17T06:57:54;2.47;;;2.10;;
40588;SDS011;26297;49.450;6.640;2024-03-17T07:00:57;2.50;;;2.03;;
40588;SDS011;26297;49.450;6.640;2024-03-17T07:04:02;2.28;;;2.08;;
40588;SDS011;26297;49.450;6.640;2024-03-17T07:07:05;2.60;;;2.40;;
40588;SDS011;26297;49.450;6.640;2024-03-17T07:10:08;3.20;;;2.53;;
40588;SDS011;26297;49.450;6.640;2024-03-17T07:13:13;2.95;;;2.00;;
40588;SDS011;26297;49.450;6.640;2024-03-17T07:16:17;2.20;;;2.00;;
40588;SDS011;26297;49.450;6.640;2024-03-17T07:19:20;2.60;;;1.85;;
40588;SDS011;26297;49.450;6.640;2024-03-17T07:22:24;2.00;;;1.90;;
40588;SDS011;26297;49.450;6.640;2024-03-17T07:25:28;4.40;;;2.40;;
40588;SDS011;26297;49.450;6.640;2024-03-17T07:28:31;2.55;;;2.28;;
40588;SDS011;26297;49.450;6.640;2024-03-17T07:31:35;2.38;;;2.17;;
40588;SDS011;26297;49.450;6.640;2024-03-17T07:34:38;2.80;;;2.50;;
40588;SDS011;26297;49.450;6.640;2024-03-17T07:37:41;2.65;;;2.03;;
40588;SDS011;26297;49.450;6.640;2024-03-17T07:40:45;2.20;;;2.00;;
40588;SDS011;26297;49.450;6.640;2024-03-17T07:43:58;2.00;;;1.90;;
40588;SDS011;26297;49.450;6.640;2024-03-17T07:47:01;2.45;;;2.00;;
40588;SDS011;26297;49.450;6.640;2024-03-17T07:50:06;1.77;;;1.67;;
40588;SDS011;26297;49.450;6.640;2024-03-17T07:53:10;2.33;;;2.13;;
40588;SDS011;26297;49.450;6.640;2024-03-17T07:56:13;1.75;;;1.65;;
40588;SDS011;26297;49.450;6.640;2024-03-17T07:59:17;2.28;;;2.08;;
40588;SDS011;26297;49.450;6.640;2024-03-17T08:02:21;2.28;;;2.08;;
40588;SDS011;26297;49.450;6.640;2024-03-17T08:05:24;2.20;;;1.75;;
40588;SDS011;26297;49.450;6.640;2024-03-17T08:08:27;2.53;;;1.70;;
40588;SDS011;26297;49.450;6.640;2024-03-17T08:11:31;2.47;;;2.20;;
40588;SDS011;26297;49.450;6.640;2024-03-17T08:14:35;3.53;;;2.10;;
40588;SDS011;26297;49.450;6.640;2024-03-17T08:17:38;2.30;;;2.10;;
40588;SDS011;26297;49.450;6.640;2024-03-17T08:20:42;2.13;;;1.92;;
40588;SDS011;26297;49.450;6.640;2024-03-17T08:23:49;2.10;;;1.90;;
40588;SDS011;26297;49.450;6.640;2024-03-17T08:26:52;1.80;;;1.70;;
40588;SDS011;26297;49.450;6.640;2024-03-17T08:29:56;2.10;;;1.88;;
40588;SDS011;26297;49.450;6.640;2024-03-17T08:32:59;2.10;;;1.90;;
40588;SDS011;26297;49.450;6.640;2024-03-17T08:36:04;2.97;;;2.33;;
40588;SDS011;26297;49.450;6.640;2024-03-17T08:39:09;2.40;;;2.10;;
40588;SDS011;26297;49.450;6.640;2024-03-17T08:42:13;2.30;;;2.10;;
40588;SDS011;26297;49.450;6.640;2024-03-17T08:45:16;3.22;;;2.92;;
40588;SDS011;26297;49.450;6.640;2024-03-17T08:48:20;2.67;;;1.92;;
40588;SDS011;26297;49.450;6.640;2024-03-17T08:51:24;2.70;;;2.50;;
40588;SDS011;26297;49.450;6.640;2024-03-17T08:54:27;3.13;;;2.13;;
40588;SDS011;26297;49.450;6.640;2024-03-17T08:57:30;2.53;;;2.33;;
40588;SDS011;26297;49.450;6.640;2024-03-17T09:00:33;2.55;;;2.33;;
40588;SDS011;26297;49.450;6.640;2024-03-17T09:03:39;3.70;;;2.72;;
40588;SDS011;26297;49.450;6.640;2024-03-17T09:06:42;2.67;;;2.47;;
40588;SDS011;26297;49.450;6.640;2024-03-17T09:09:48;4.22;;;2.60;;
40588;SDS011;26297;49.450;6.640;2024-03-17T09:12:51;2.95;;;2.42;;
40588;SDS011;26297;49.450;6.640;2024-03-17T09:15:55;4.22;;;2.80;;
40588;SDS011;26297;49.450;6.640;2024-03-17T09:19:02;4.03;;;2.55;;
40588;SDS011;26297;49.450;6.640;2024-03-17T09:22:05;3.63;;;2.83;;
40588;SDS011;26297;49.450;6.640;2024-03-17T09:25:09;2.92;;;2.60;;
40588;SDS011;26297;49.450;6.640;2024-03-17T09:28:12;3.42;;;2.80;;
40588;SDS011;26297;49.450;6.640;2024-03-17T09:31:15;2.63;;;2.05;;
40588;SDS011;26297;49.450;6.640;2024-03-17T09:34:19;4.72;;;3.03;;
40588;SDS011;26297;49.450;6.640;2024-03-17T09:37:22;4.35;;;2.63;;
40588;SDS011;26297;49.450;6.640;2024-03-17T09:40:26;3.42;;;2.83;;
40588;SDS011;26297;49.450;6.640;2024-03-17T09:43:30;3.45;;;2.83;;
40588;SDS011;26297;49.450;6.640;2024-03-17T09:46:35;3.70;;;3.05;;
40588;SDS011;26297;49.450;6.640;2024-03-17T09:49:39;4.63;;;2.70;;
40588;SDS011;26297;49.450;6.640;2024-03-17T09:52:42;6.78;;;3.45;;
40588;SDS011;26297;49.450;6.640;2024-03-17T09:55:50;6.10;;;3.28;;
40588;SDS011;26297;49.450;6.640;2024-03-17T09:58:54;6.78;;;3.67;;
40588;SDS011;26297;49.450;6.640;2024-03-17T10:01:57;6.15;;;3.20;;
40588;SDS011;26297;49.450;6.640;2024-03-17T10:05:00;6.97;;;3.97;;
40588;SDS011;26297;49.450;6.640;2024-03-17T10:12:27;10.13;;;3.70;;
40588;SDS011;26297;49.450;6.640;2024-03-17T10:15:32;8.30;;;3.80;;
40588;SDS011;26297;49.450;6.640;2024-03-17T10:18:36;8.43;;;3.95;;
40588;SDS011;26297;49.450;6.640;2024-03-17T10:21:43;6.82;;;3.65;;
40588;SDS011;26297;49.450;6.640;2024-03-17T10:24:58;5.28;;;3.22;;
40588;SDS011;26297;49.450;6.640;2024-03-17T10:28:02;10.07;;;4.88;;
40588;SDS011;26297;49.450;6.640;2024-03-17T10:31:05;6.50;;;3.30;;
40588;SDS011;26297;49.450;6.640;2024-03-17T10:34:14;6.47;;;3.95;;
40588;SDS011;26297;49.450;6.640;2024-03-17T10:37:21;7.22;;;4.22;;
40588;SDS011;26297;49.450;6.640;2024-03-17T10:40:30;5.38;;;3.58;;
40588;SDS011;26297;49.450;6.640;2024-03-17T10:43:36;7.90;;;3.72;;
40588;SDS011;26297;49.450;6.640;2024-03-17T10:46:41;11.05;;;4.63;;
40588;SDS011;26297;49.450;6.640;2024-03-17T10:49:46;7.28;;;4.47;;
40588;SDS011;26297;49.450;6.640;2024-03-17T10:54:08;8.20;;;4.35;;
40588;SDS011;26297;49.450;6.640;2024-03-17T10:57:36;7.85;;;4.47;;
40588;SDS011;26297;49.450;6.640;2024-03-17T11:00:50;7.00;;;4.03;;
40588;SDS011;26297;49.450;6.640;2024-03-17T11:03:54;9.35;;;4.25;;
40588;SDS011;26297;49.450;6.640;2024-03-17T11:06:57;7.68;;;3.97;;
40588;SDS011;26297;49.450;6.640;2024-03-17T11:10:06;13.27;;;5.00;;
40588;SDS011;26297;49.450;6.640;2024-03-17T11:14:21;9.10;;;4.53;;
40588;SDS011;26297;49.450;6.640;2024-03-17T11:21:42;6.95;;;4.50;;
40588;SDS011;26297;49.450;6.640;2024-03-17T11:24:46;7.60;;;4.13;;
40588;SDS011;26297;49.450;6.640;2024-03-17T11:27:50;10.18;;;4.97;;
40588;SDS011;26297;49.450;6.640;2024-03-17T11:30:53;6.93;;;3.72;;
40588;SDS011;26297;49.450;6.640;2024-03-17T11:37:42;5.63;;;3.67;;
40588;SDS011;26297;49.450;6.640;2024-03-17T11:40:45;7.57;;;4.35;;
40588;SDS011;26297;49.450;6.640;2024-03-17T11:43:49;6.68;;;3.72;;
40588;SDS011;26297;49.450;6.640;2024-03-17T11:50:04;7.47;;;3.83;;
40588;SDS011;26297;49.450;6.640;2024-03-17T11:53:13;5.82;;;4.10;;
40588;SDS011;26297;49.450;6.640;2024-03-17T11:56:22;7.13;;;3.83;;
40588;SDS011;26297;49.450;6.640;2024-03-17T12:02:30;6.95;;;3.83;;
40588;SDS011;26297;49.450;6.640;2024-03-17T12:05:34;9.07;;;3.75;;
40588;SDS011;26297;49.450;6.640;2024-03-17T12:08:37;5.63;;;4.05;;
40588;SDS011;26297;49.450;6.640;2024-03-17T12:11:41;7.68;;;3.88;;
40588;SDS011;26297;49.450;6.640;2024-03-17T12:14:44;9.18;;;4.70;;
40588;SDS011;26297;49.450;6.640;2024-03-17T12:17:52;5.72;;;4.10;;
40588;SDS011;26297;49.450;6.640;2024-03-17T12:20:56;10.07;;;4.65;;
40588;SDS011;26297;49.450;6.640;2024-03-17T12:24:01;10.00;;;4.75;;
40588;SDS011;26297;49.450;6.640;2024-03-17T12:27:05;9.68;;;5.10;;
40588;SDS011;26297;49.450;6.640;2024-03-17T12:30:09;6.95;;;3.90;;
40588;SDS011;26297;49.450;6.640;2024-03-17T12:33:13;9.40;;;4.65;;
40588;SDS011;26297;49.450;6.640;2024-03-17T12:36:16;6.13;;;3.97;;
40588;SDS011;26297;49.450;6.640;2024-03-17T12:39:22;4.85;;;3.33;;
40588;SDS011;26297;49.450;6.640;2024-03-17T12:42:40;5.60;;;3.38;;
40588;SDS011;26297;49.450;6.640;2024-03-17T12:45:44;8.55;;;3.67;;
40588;SDS011;26297;49.450;6.640;2024-03-17T12:48:57;8.52;;;3.72;;
40588;SDS011;26297;49.450;6.640;2024-03-17T12:56:24;5.05;;;2.50;;
40588;SDS011;26297;49.450;6.640;2024-03-17T12:59:46;4.25;;;2.67;;
40588;SDS011;26297;49.450;6.640;2024-03-17T13:03:09;3.90;;;2.42;;
40588;SDS011;26297;49.450;6.640;2024-03-17T13:06:28;1.80;;;1.38;;
40588;SDS011;26297;49.450;6.640;2024-03-17T13:09:31;1.80;;;1.70;;
40588;SDS011;26297;49.450;6.640;2024-03-17T13:12:35;3.10;;;1.85;;
40588;SDS011;26297;49.450;6.640;2024-03-17T13:15:38;1.80;;;1.60;;
40588;SDS011;26297;49.450;6.640;2024-03-17T13:18:42;2.05;;;1.58;;
40588;SDS011;26297;49.450;6.640;2024-03-17T13:21:44;1.95;;;1.60;;
40588;SDS011;26297;49.450;6.640;2024-03-17T13:24:48;1.35;;;1.23;;
40588;SDS011;26297;49.450;6.640;2024-03-17T13:27:52;1.30;;;1.15;;
40588;SDS011;26297;49.450;6.640;2024-03-17T13:30:55;1.60;;;1.40;;
40588;SDS011;26297;49.450;6.640;2024-03-17T13:33:58;1.40;;;1.30;;
40588;SDS011;26297;49.450;6.640;2024-03-17T13:37:02;1.30;;;1.20;;
40588;SDS011;26297;49.450;6.640;2024-03-17T13:40:07;3.13;;;2.22;;
40588;SDS011;26297;49.450;6.640;2024-03-17T13:43:12;2.00;;;1.50;;
40588;SDS011;26297;49.450;6.640;2024-03-17T13:46:16;1.95;;;1.60;;
40588;SDS011;26297;49.450;6.640;2024-03-17T13:49:19;2.60;;;1.98;;
40588;SDS011;26297;49.450;6.640;2024-03-17T13:52:22;3.38;;;1.33;;
40588;SDS011;26297;49.450;6.640;2024-03-17T13:55:26;4.18;;;2.00;;
40588;SDS011;26297;49.450;6.640;2024-03-17T13:58:29;3.47;;;1.73;;
40588;SDS011;26297;49.450;6.640;2024-03-17T14:01:32;2.03;;;1.60;;
40588;SDS011;26297;49.450;6.640;2024-03-17T14:04:36;3.33;;;1.60;;
40588;SDS011;26297;49.450;6.640;2024-03-17T14:07:39;1.85;;;1.30;;
40588;SDS011;26297;49.450;6.640;2024-03-17T14:10:43;2.63;;;1.80;;
40588;SDS011;26297;49.450;6.640;2024-03-17T14:13:46;2.45;;;1.40;;
40588;SDS011;26297;49.450;6.640;2024-03-17T14:16:49;1.90;;;1.70;;
40588;SDS011;26297;49.450;6.640;2024-03-17T14:19:53;2.35;;;1.58;;
40588;SDS011;26297;49.450;6.640;2024-03-17T14:22:57;2.80;;;1.27;;
40588;SDS011;26297;49.450;6.640;2024-03-17T14:26:01;2.63;;;1.65;;
40588;SDS011;26297;49.450;6.640;2024-03-17T14:29:06;1.73;;;1.42;;
40588;SDS011;26297;49.450;6.640;2024-03-17T14:32:10;2.25;;;0.88;;
40588;SDS011;26297;49.450;6.640;2024-03-17T14:35:13;4.13;;;1.20;;
40588;SDS011;26297;49.450;6.640;2024-03-17T14:38:20;2.08;;;1.33;;
40588;SDS011;26297;49.450;6.640;2024-03-17T14:41:23;1.45;;;1.35;;
40588;SDS011;26297;49.450;6.640;2024-03-17T14:44:27;1.38;;;1.25;;
40588;SDS011;26297;49.450;6.640;2024-03-17T14:47:30;1.42;;;1.33;;
40588;SDS011;26297;49.450;6.640;2024-03-17T14:50:33;1.70;;;1.23;;
40588;SDS011;26297;49.450;6.640;2024-03-17T14:53:36;2.45;;;1.48;;
40588;SDS011;26297;49.450;6.640;2024-03-17T14:56:45;2.95;;;1.83;;
40588;SDS011;26297;49.450;6.640;2024-03-17T14:59:48;2.60;;;1.27;;
40588;SDS011;26297;49.450;6.640;2024-03-17T15:02:51;2.30;;;1.40;;
40588;SDS011;26297;49.450;6.640;2024-03-17T15:05:55;1.75;;;1.30;;
40588;SDS011;26297;49.450;6.640;2024-03-17T15:08:58;1.23;;;0.93;;
40588;SDS011;26297;49.450;6.640;2024-03-17T15:12:02;2.38;;;1.20;;
40588;SDS011;26297;49.450;6.640;2024-03-17T15:15:09;1.48;;;0.90;;
40588;SDS011;26297;49.450;6.640;2024-03-17T15:18:13;1.42;;;1.02;;
40588;SDS011;26297;49.450;6.640;2024-03-17T15:21:16;2.50;;;0.90;;
40588;SDS011;26297;49.450;6.640;2024-03-17T15:24:19;1.13;;;0.82;;
40588;SDS011;26297;49.450;6.640;2024-03-17T15:27:22;1.15;;;1.00;;
40588;SDS011;26297;49.450;6.640;2024-03-17T15:30:26;3.20;;;0.80;;
40588;SDS011;26297;49.450;6.640;2024-03-17T15:33:32;0.60;;;0.60;;
40588;SDS011;26297;49.450;6.640;2024-03-17T15:36:39;1.40;;;0.60;;
40588;SDS011;26297;49.450;6.640;2024-03-17T15:39:43;0.77;;;0.50;;
40588;SDS011;26297;49.450;6.640;2024-03-17T15:42:47;2.25;;;0.75;;
40588;SDS011;26297;49.450;6.640;2024-03-17T15:45:51;1.45;;;0.80;;
40588;SDS011;26297;49.450;6.640;2024-03-17T15:48:54;0.82;;;0.75;;
40588;SDS011;26297;49.450;6.640;2024-03-17T15:51:57;0.95;;;0.73;;
40588;SDS011;26297;49.450;6.640;2024-03-17T15:55:01;3.33;;;0.80;;
40588;SDS011;26297;49.450;6.640;2024-03-17T15:58:05;1.50;;;0.63;;
40588;SDS011;26297;49.450;6.640;2024-03-17T16:01:09;2.58;;;0.60;;
40588;SDS011;26297;49.450;6.640;2024-03-17T16:04:12;1.08;;;0.60;;
40588;SDS011;26297;49.450;6.640;2024-03-17T16:07:16;0.63;;;0.50;;
40588;SDS011;26297;49.450;6.640;2024-03-17T16:10:20;1.38;;;0.73;;
40588;SDS011;26297;49.450;6.640;2024-03-17T16:13:24;1.05;;;0.50;;
40588;SDS011;26297;49.450;6.640;2024-03-17T16:16:30;0.80;;;0.70;;
40588;SDS011;26297;49.450;6.640;2024-03-17T16:19:34;0.43;;;0.43;;
40588;SDS011;26297;49.450;6.640;2024-03-17T16:22:37;0.90;;;0.40;;
40588;SDS011;26297;49.450;6.640;2024-03-17T16:25:41;0.70;;;0.52;;
40588;SDS011;26297;49.450;6.640;2024-03-17T16:28:44;0.63;;;0.60;;
40588;SDS011;26297;49.450;6.640;2024-03-17T16:31:48;0.70;;;0.70;;
40588;SDS011;26297;49.450;6.640;2024-03-17T16:34:52;1.13;;;0.70;;
40588;SDS011;26297;49.450;6.640;2024-03-17T16:37:56;0.68;;;0.68;;
40588;SDS011;26297;49.450;6.640;2024-03-17T16:40:59;2.00;;;0.60;;
40588;SDS011;26297;49.450;6.640;2024-03-17T16:44:09;0.85;;;0.60;;
40588;SDS011;26297;49.450;6.640;2024-03-17T16:47:31;3.63;;;0.70;;
40588;SDS011;26297;49.450;6.640;2024-03-17T16:50:37;2.42;;;0.77;;
40588;SDS011;26297;49.450;6.640;2024-03-17T16:53:40;0.88;;;0.63;;
40588;SDS011;26297;49.450;6.640;2024-03-17T16:56:43;1.40;;;0.70;;
40588;SDS011;26297;49.450;6.640;2024-03-17T16:59:48;2.60;;;0.68;;
40588;SDS011;26297;49.450;6.640;2024-03-17T17:02:51;1.95;;;0.45;;
40588;SDS011;26297;49.450;6.640;2024-03-17T17:05:54;1.67;;;0.90;;
40588;SDS011;26297;49.450;6.640;2024-03-17T17:08:58;1.55;;;0.47;;
40588;SDS011;26297;49.450;6.640;2024-03-17T17:12:00;0.90;;;0.45;;
40588;SDS011;26297;49.450;6.640;2024-03-17T17:15:04;1.20;;;0.52;;
40588;SDS011;26297;49.450;6.640;2024-03-17T17:18:45;1.00;;;0.70;;
40588;SDS011;26297;49.450;6.640;2024-03-17T17:21:50;0.47;;;0.47;;
40588;SDS011;26297;49.450;6.640;2024-03-17T17:24:54;2.47;;;0.55;;
40588;SDS011;26297;49.450;6.640;2024-03-17T17:27:59;1.17;;;0.47;;
40588;SDS011;26297;49.450;6.640;2024-03-17T17:31:02;1.92;;;0.55;;
40588;SDS011;26297;49.450;6.640;2024-03-17T17:34:06;0.43;;;0.32;;
40588;SDS011;26297;49.450;6.640;2024-03-17T17:37:09;0.82;;;0.40;;
40588;SDS011;26297;49.450;6.640;2024-03-17T17:40:14;0.30;;;0.30;;
40588;SDS011;26297;49.450;6.640;2024-03-17T17:43:18;0.95;;;0.60;;
40588;SDS011;26297;49.450;6.640;2024-03-17T17:46:22;1.10;;;0.50;;
40588;SDS011;26297;49.450;6.640;2024-03-17T17:49:28;0.40;;;0.40;;
40588;SDS011;26297;49.450;6.640;2024-03-17T17:52:31;3.03;;;0.50;;
40588;SDS011;26297;49.450;6.640;2024-03-17T17:55:35;2.05;;;0.73;;
40588;SDS011;26297;49.450;6.640;2024-03-17T17:58:40;0.63;;;0.45;;
40588;SDS011;26297;49.450;6.640;2024-03-17T18:01:45;1.02;;;0.50;;
40588;SDS011;26297;49.450;6.640;2024-03-17T18:04:49;0.60;;;0.50;;
40588;SDS011;26297;49.450;6.640;2024-03-17T18:07:53;0.68;;;0.52;;
40588;SDS011;26297;49.450;6.640;2024-03-17T18:10:57;0.57;;;0.57;;
40588;SDS011;26297;49.450;6.640;2024-03-17T18:14:00;0.65;;;0.40;;
40588;SDS011;26297;49.450;6.640;2024-03-17T18:17:03;1.02;;;0.85;;
40588;SDS011;26297;49.450;6.640;2024-03-17T18:20:06;0.52;;;0.43;;
40588;SDS011;26297;49.450;6.640;2024-03-17T18:23:12;0.80;;;0.68;;
40588;SDS011;26297;49.450;6.640;2024-03-17T18:26:15;1.05;;;0.80;;
40588;SDS011;26297;49.450;6.640;2024-03-17T18:29:19;1.20;;;0.60;;
40588;SDS011;26297;49.450;6.640;2024-03-17T18:32:23;1.45;;;0.75;;
40588;SDS011;26297;49.450;6.640;2024-03-17T18:35:26;1.73;;;0.75;;
40588;SDS011;26297;49.450;6.640;2024-03-17T18:38:34;1.10;;;0.63;;
40588;SDS011;26297;49.450;6.640;2024-03-17T18:41:38;2.75;;;0.73;;
40588;SDS011;26297;49.450;6.640;2024-03-17T18:44:41;1.33;;;0.55;;
40588;SDS011;26297;49.450;6.640;2024-03-17T18:47:45;2.22;;;0.60;;
40588;SDS011;26297;49.450;6.640;2024-03-17T18:50:55;1.50;;;0.60;;
40588;SDS011;26297;49.450;6.640;2024-03-17T18:53:59;0.60;;;0.60;;
40588;SDS011;26297;49.450;6.640;2024-03-17T18:57:04;1.90;;;0.60;;
40588;SDS011;26297;49.450;6.640;2024-03-17T19:00:07;1.42;;;0.60;;
40588;SDS011;26297;49.450;6.640;2024-03-17T19:03:16;1.35;;;0.63;;
40588;SDS011;26297;49.450;6.640;2024-03-17T19:06:19;0.50;;;0.45;;
40588;SDS011;26297;49.450;6.640;2024-03-17T19:09:24;1.00;;;0.88;;
40588;SDS011;26297;49.450;6.640;2024-03-17T19:12:27;1.13;;;0.70;;
40588;SDS011;26297;49.450;6.640;2024-03-17T19:15:30;0.73;;;0.50;;
40588;SDS011;26297;49.450;6.640;2024-03-17T19:18:34;2.33;;;1.10;;
40588;SDS011;26297;49.450;6.640;2024-03-17T19:21:43;1.50;;;0.70;;
40588;SDS011;26297;49.450;6.640;2024-03-17T19:24:51;3.20;;;1.27;;
40588;SDS011;26297;49.450;6.640;2024-03-17T19:27:56;3.92;;;1.05;;
40588;SDS011;26297;49.450;6.640;2024-03-17T19:30:59;0.75;;;0.55;;
40588;SDS011;26297;49.450;6.640;2024-03-17T19:34:03;1.40;;;0.70;;
40588;SDS011;26297;49.450;6.640;2024-03-17T19:37:07;1.63;;;0.80;;
40588;SDS011;26297;49.450;6.640;2024-03-17T19:40:10;0.80;;;0.80;;
40588;SDS011;26297;49.450;6.640;2024-03-17T19:43:14;0.85;;;0.70;;
40588;SDS011;26297;49.450;6.640;2024-03-17T19:46:17;2.10;;;0.90;;
40588;SDS011;26297;49.450;6.640;2024-03-17T19:49:23;0.68;;;0.68;;
40588;SDS011;26297;49.450;6.640;2024-03-17T19:52:26;1.58;;;0.77;;
40588;SDS011;26297;49.450;6.640;2024-03-17T19:55:29;1.25;;;0.73;;
40588;SDS011;26297;49.450;6.640;2024-03-17T19:58:36;1.58;;;0.70;;
40588;SDS011;26297;49.450;6.640;2024-03-17T20:01:40;1.17;;;0.60;;
40588;SDS011;26297;49.450;6.640;2024-03-17T20:04:59;1.63;;;0.90;;
40588;SDS011;26297;49.450;6.640;2024-03-17T20:08:02;1.85;;;0.70;;
40588;SDS011;26297;49.450;6.640;2024-03-17T20:11:09;2.28;;;0.70;;
40588;SDS011;26297;49.450;6.640;2024-03-17T20:14:13;3.08;;;1.00;;
40588;SDS011;26297;49.450;6.640;2024-03-17T20:17:16;1.00;;;0.90;;
40588;SDS011;26297;49.450;6.640;2024-03-17T20:20:19;1.80;;;0.70;;
40588;SDS011;26297;49.450;6.640;2024-03-17T20:23:38;1.92;;;0.98;;
40588;SDS011;26297;49.450;6.640;2024-03-17T20:27:44;1.10;;;0.70;;
40588;SDS011;26297;49.450;6.640;2024-03-17T20:32:10;1.27;;;1.00;;
40588;SDS011;26297;49.450;6.640;2024-03-17T20:35:15;1.38;;;0.98;;
40588;SDS011;26297;49.450;6.640;2024-03-17T20:38:19;2.45;;;1.40;;
40588;SDS011;26297;49.450;6.640;2024-03-17T20:41:22;1.48;;;1.35;;
40588;SDS011;26297;49.450;6.640;2024-03-17T20:44:26;2.05;;;1.60;;
40588;SDS011;26297;49.450;6.640;2024-03-17T20:47:29;3.17;;;1.85;;
40588;SDS011;26297;49.450;6.640;2024-03-17T20:50:33;2.53;;;1.20;;
40588;SDS011;26297;49.450;6.640;2024-03-17T20:53:37;1.20;;;1.10;;
40588;SDS011;26297;49.450;6.640;2024-03-17T20:57:14;1.25;;;1.10;;
40588;SDS011;26297;49.450;6.640;2024-03-17T21:01:10;2.60;;;1.30;;
40588;SDS011;26297;49.450;6.640;2024-03-17T21:04:14;1.88;;;1.30;;
40588;SDS011;26297;49.450;6.640;2024-03-17T21:07:44;4.15;;;1.10;;
40588;SDS011;26297;49.450;6.640;2024-03-17T21:11:03;1.52;;;1.33;;
40588;SDS011;26297;49.450;6.640;2024-03-17T21:14:29;1.70;;;1.33;;
40588;SDS011;26297;49.450;6.640;2024-03-17T21:17:32;1.20;;;0.90;;
40588;SDS011;26297;49.450;6.640;2024-03-17T21:20:36;5.07;;;1.70;;
40588;SDS011;26297;49.450;6.640;2024-03-17T21:23:40;1.77;;;1.05;;
40588;SDS011;26297;49.450;6.640;2024-03-17T21:26:44;3.08;;;1.10;;
40588;SDS011;26297;49.450;6.640;2024-03-17T21:30:02;1.55;;;0.98;;
40588;SDS011;26297;49.450;6.640;2024-03-17T21:33:14;1.70;;;1.20;;
40588;SDS011;26297;49.450;6.640;2024-03-17T21:36:17;1.70;;;0.90;;
40588;SDS011;26297;49.450;6.640;2024-03-17T21:39:20;1.85;;;1.38;;
40588;SDS011;26297;49.450;6.640;2024-03-17T21:42:24;1.40;;;0.73;;
40588;SDS011;26297;49.450;6.640;2024-03-17T21:45:28;3.85;;;1.08;;
40588;SDS011;26297;49.450;6.640;2024-03-17T21:48:31;2.40;;;1.08;;
40588;SDS011;26297;49.450;6.640;2024-03-17T21:51:34;1.95;;;1.35;;
40588;SDS011;26297;49.450;6.640;2024-03-17T21:54:38;1.20;;;0.98;;
40588;SDS011;26297;49.450;6.640;2024-03-17T21:57:41;2.75;;;1.10;;
40588;SDS011;26297;49.450;6.640;2024-03-17T22:01:39;1.60;;;0.93;;
40588;SDS011;26297;49.450;6.640;2024-03-17T22:04:43;0.70;;;0.70;;
40588;SDS011;26297;49.450;6.640;2024-03-17T22:08:44;3.38;;;1.25;;
40588;SDS011;26297;49.450;6.640;2024-03-17T22:11:49;1.80;;;1.17;;
40588;SDS011;26297;49.450;6.640;2024-03-17T22:14:56;0.95;;;0.90;;
40588;SDS011;26297;49.450;6.640;2024-03-17T22:17:59;2.47;;;1.40;;
40588;SDS011;26297;49.450;6.640;2024-03-17T22:21:03;1.73;;;1.23;;
40588;SDS011;26297;49.450;6.640;2024-03-17T22:24:06;1.63;;;1.13;;
40588;SDS011;26297;49.450;6.640;2024-03-17T22:27:09;1.85;;;1.10;;
40588;SDS011;26297;49.450;6.640;2024-03-17T22:30:56;2.88;;;1.50;;
40588;SDS011;26297;49.450;6.640;2024-03-17T22:34:03;3.40;;;1.77;;
40588;SDS011;26297;49.450;6.640;2024-03-17T22:37:56;1.38;;;1.27;;
